Grand Blanc, Michigan
Current Conditions -  °F | °C
As of 12:53 PM on Thursday 30 Oct 2014 (Local Time) from KFNT Reporting Station
Overcast Overcast  
Wind Chill: 44°   Ceiling: 4300
Heat Index: 47°   Visibility: 10mi
Dew Point: 36°   Wind: 7mph
Humidity: 66%   Direction: 170°S
Pressure: 30.11"   Gusts: NA
Location:  42.93°N, 83.63°W
Report Text: KFNT 301653Z 17006KT 10SM OVC043 08/02 A3011 RMK AO2 SLP202 T00830022
Loading
Personal Weather Stations






























Interactive Weather Map
Tropical Storm Tracking
New forecast layout! Learn more

10-Day Weather Forecast

Advertisements
Track Severe Weather on mobile